Strona główna
METAR-TAF:

METAR-TAF

Lotnisko :

Port lotniczy Dźinnaha w Karaczi

Karaczi, Pakistan

Szerokość geograficzna: 24-54N, Długość geograficzna: 067-08E, wysokość: 21 m

Aktualna obserwacja pogody

Raport powstał 16 minut temu, godzina 21:55 UTC
Wiatr 5 kt od zachodnio-północny zachód
Temperatura 22°C
Wilgotność 78%
Ciśnienie 1011 hPa
Widzialność: 4000 m
Rozproszone chmury na wysokości 3000 ft
dym

METAR: OPKC 092155Z 30005KT 4000 FU SCT030 22/18 Q1011 NOSIG

czas: 03:11 (22:11 UTC)

Prognoza

Raport powstał 3 godziny i 41 minut temu, godzina 18:30 UTC
Prognoza ważna od 09 godzina 21 UTC do 10 godzina 06 UTC
Wiatr 8 kt od zachód
Widzialność: 4000 m
Rozproszone chmury na wysokości 3000 ft
zmętnienie
Przejściowo
od 10 godzina 00 UTC do 10 godzina 04 UTC
Wiatr 6 kt od zachód
Widzialność: 3000 m
Rozproszone chmury na wysokości 1800 ft
Rozproszone chmury na wysokości 10000 ft
słaby deszcz, mżawka

TAF: OPKC 091830Z 0921/1006 27008KT 4000 HZ SCT030 TEMPO 1000/1004 26006KT 3000 -RADZ SCT018 SCT100

Obserwacja i prognoza pogody dla ponad 4000 lotnisk (raport METAR i TAF).

Dostępne stacje oznaczono żółtymi i czerwonymi punktami na mapie.

Najedź kursorem aby zobaczyć nazwę stacji.

Kliknij aby zobaczyć obserwacje i prognozy pogody.

Aby zmienić mapę: kliknij na zielony przycisk z czarnym krzyżykiem, aby powiększyć; na zielony przycisk z myślnikiem, aby pomniejszyć; na zielone strzałki, aby przejść do map sąsiednich.


METAR-TAF: